createdAt,value
2022-11-29T00:01:39.302Z,7.60
2022-11-29T00:04:06.530Z,6.60
2022-11-29T00:06:35.589Z,7.20
2022-11-29T00:09:07.814Z,6.80
2022-11-29T00:11:56.357Z,6.60
2022-11-29T00:14:24.570Z,7.00
2022-11-29T00:17:02.683Z,7.70
2022-11-29T00:19:32.372Z,7.90
2022-11-29T00:22:01.259Z,7.80
2022-11-29T00:24:28.598Z,7.50
2022-11-29T00:26:55.390Z,7.90
2022-11-29T00:29:22.228Z,8.10
2022-11-29T00:31:49.238Z,7.60
2022-11-29T00:34:15.998Z,7.10
2022-11-29T00:36:42.779Z,6.20
2022-11-29T00:39:12.112Z,5.10
2022-11-29T00:41:40.315Z,5.90
2022-11-29T00:44:07.680Z,5.80
2022-11-29T00:46:34.535Z,5.80
2022-11-29T00:49:01.366Z,6.60
2022-11-29T00:51:28.213Z,6.40
2022-11-29T00:53:55.002Z,6.60
2022-11-29T00:56:22.050Z,7.10
2022-11-29T00:58:49.656Z,7.30
2022-11-29T01:01:16.846Z,9.10
2022-11-29T01:03:43.955Z,7.50
2022-11-29T01:06:15.182Z,6.90
2022-11-29T01:08:42.250Z,6.10
2022-11-29T01:11:14.061Z,6.20
2022-11-29T01:13:42.361Z,6.40
2022-11-29T01:16:10.154Z,6.20
2022-11-29T01:18:38.735Z,6.10
2022-11-29T01:21:16.325Z,5.60
2022-11-29T01:23:44.513Z,5.50
2022-11-29T01:26:25.167Z,6.60
2022-11-29T01:28:54.662Z,6.90
2022-11-29T01:31:29.022Z,6.90
2022-11-29T01:33:58.893Z,6.40
2022-11-29T01:36:27.410Z,6.90
2022-11-29T01:38:54.946Z,7.20
2022-11-29T01:41:26.243Z,6.30
2022-11-29T01:44:12.997Z,5.90
2022-11-29T01:46:46.297Z,6.30
2022-11-29T01:49:24.075Z,6.40
2022-11-29T01:51:55.297Z,6.50
2022-11-29T01:54:22.892Z,6.60
2022-11-29T01:56:52.749Z,6.60
2022-11-29T01:59:28.267Z,7.60
2022-11-29T02:02:12.754Z,8.20
2022-11-29T02:04:43.526Z,10.30
2022-11-29T02:07:11.197Z,9.40
2022-11-29T02:09:38.046Z,9.70
2022-11-29T02:12:28.968Z,12.00
2022-11-29T02:15:05.417Z,9.00
2022-11-29T02:18:03.510Z,10.60
2022-11-29T02:21:10.069Z,9.40
2022-11-29T02:24:33.537Z,9.90
2022-11-29T02:27:36.629Z,9.70
2022-11-29T02:30:24.462Z,9.10
2022-11-29T02:36:02.691Z,11.10
2022-11-29T02:38:53.188Z,11.20
2022-11-29T02:41:49.168Z,11.00
2022-11-29T02:44:37.754Z,11.80
2022-11-29T02:47:56.545Z,10.60
2022-11-29T02:50:55.586Z,10.50
2022-11-29T02:53:37.386Z,12.10
2022-11-29T02:56:27.377Z,10.50
2022-11-29T02:59:51.454Z,9.80
2022-11-29T03:02:48.399Z,11.50
2022-11-29T03:05:48.065Z,12.40
2022-11-29T03:08:59.904Z,11.50
2022-11-29T03:11:55.694Z,11.70
2022-11-29T03:14:44.080Z,12.20
2022-11-29T03:17:23.444Z,12.60
2022-11-29T03:20:11.910Z,11.30
2022-11-29T03:23:00.107Z,10.90
2022-11-29T03:25:44.797Z,9.70
2022-11-29T03:28:21.772Z,11.00
2022-11-29T03:31:21.856Z,12.50
2022-11-29T03:34:12.893Z,9.80
2022-11-29T03:36:58.328Z,11.70
2022-11-29T03:39:37.927Z,12.00
2022-11-29T03:42:14.292Z,12.30
2022-11-29T03:45:03.368Z,11.80
2022-11-29T03:48:27.031Z,11.90
2022-11-29T03:51:21.814Z,12.10
2022-11-29T03:54:00.340Z,10.90
2022-11-29T03:56:37.026Z,10.60
2022-11-29T03:59:45.555Z,10.90
2022-11-29T04:02:18.028Z,10.70
2022-11-29T04:05:37.896Z,10.70
2022-11-29T04:08:55.936Z,11.70
2022-11-29T04:12:00.054Z,11.20
2022-11-29T04:15:10.509Z,12.20
2022-11-29T04:17:49.873Z,11.30
2022-11-29T04:21:00.420Z,11.80
2022-11-29T04:24:00.140Z,10.60
2022-11-29T04:26:35.679Z,10.90
2022-11-29T04:29:39.926Z,11.60
2022-11-29T04:32:50.257Z,10.40
2022-11-29T04:35:44.240Z,11.20
2022-11-29T04:38:32.712Z,11.30
2022-11-29T04:42:09.467Z,12.10
2022-11-29T04:45:09.794Z,11.50
2022-11-29T04:48:23.009Z,13.30
2022-11-29T04:51:39.429Z,11.40
2022-11-29T04:54:42.605Z,12.20
2022-11-29T04:57:41.026Z,11.00
2022-11-29T05:00:18.075Z,10.50
2022-11-29T05:02:58.501Z,11.20
2022-11-29T05:05:55.078Z,12.40
2022-11-29T05:08:56.542Z,12.10
2022-11-29T05:11:41.201Z,10.10
2022-11-29T05:14:27.396Z,11.10
2022-11-29T05:17:21.267Z,11.70
2022-11-29T05:20:08.930Z,13.40
2022-11-29T05:23:32.674Z,11.40
2022-11-29T05:26:29.513Z,11.90
2022-11-29T05:29:16.424Z,12.20
2022-11-29T05:32:07.650Z,12.40
2022-11-29T05:35:12.275Z,11.50
2022-11-29T05:38:24.172Z,12.20
2022-11-29T05:41:19.426Z,10.70
2022-11-29T05:44:12.757Z,10.70
2022-11-29T05:46:51.055Z,10.60
2022-11-29T05:49:45.102Z,11.90
2022-11-29T05:52:24.681Z,13.40
2022-11-29T05:55:22.964Z,12.90
2022-11-29T05:58:20.004Z,12.60
2022-11-29T06:01:17.777Z,12.80
2022-11-29T06:03:57.622Z,12.90
2022-11-29T06:06:44.881Z,12.40
2022-11-29T06:09:28.895Z,12.30
2022-11-29T06:12:10.067Z,13.20
2022-11-29T06:15:34.576Z,11.60
2022-11-29T06:18:45.012Z,12.50
2022-11-29T06:22:00.303Z,13.10
2022-11-29T06:25:17.015Z,14.50
2022-11-29T06:28:06.686Z,15.00
2022-11-29T06:31:24.593Z,11.70
2022-11-29T06:34:10.023Z,14.20
2022-11-29T06:37:25.989Z,14.00
2022-11-29T06:39:55.454Z,13.70
2022-11-29T06:42:22.217Z,14.00
2022-11-29T06:44:49.769Z,14.20
2022-11-29T06:47:27.911Z,12.20
2022-11-29T06:50:08.753Z,12.20
2022-11-29T06:52:49.973Z,12.60
2022-11-29T06:55:56.977Z,14.20
2022-11-29T06:58:39.457Z,14.20
2022-11-29T07:01:31.220Z,13.50
2022-11-29T07:04:34.930Z,13.20
2022-11-29T07:07:02.263Z,12.70
2022-11-29T07:09:34.697Z,12.40
2022-11-29T07:12:02.249Z,12.30
2022-11-29T07:14:29.689Z,11.20
2022-11-29T07:17:21.463Z,11.80
2022-11-29T07:19:57.411Z,12.20
2022-11-29T07:23:28.233Z,13.30
2022-11-29T07:26:07.054Z,11.60
2022-11-29T07:29:27.372Z,11.90
2022-11-29T07:32:16.014Z,13.10
2022-11-29T07:35:21.900Z,13.30
2022-11-29T07:38:23.985Z,11.80
2022-11-29T07:41:25.746Z,12.10
2022-11-29T07:44:21.908Z,12.20
2022-11-29T07:46:48.920Z,12.70
2022-11-29T07:49:15.831Z,12.50
2022-11-29T07:51:43.356Z,14.20
2022-11-29T07:54:20.166Z,14.50
2022-11-29T07:56:47.212Z,10.40
2022-11-29T07:59:14.794Z,14.90
2022-11-29T08:01:41.970Z,13.30
2022-11-29T08:04:10.308Z,12.60
2022-11-29T08:06:37.551Z,13.80
2022-11-29T08:09:05.530Z,13.00
2022-11-29T08:11:32.464Z,13.00
2022-11-29T08:14:02.667Z,12.80
2022-11-29T08:16:30.188Z,12.90
2022-11-29T08:18:57.280Z,11.90
2022-11-29T08:21:24.236Z,14.30
2022-11-29T08:23:52.102Z,15.20
2022-11-29T08:26:20.637Z,12.90
2022-11-29T08:28:52.330Z,13.80
2022-11-29T08:31:21.233Z,14.50
2022-11-29T08:33:48.225Z,13.30
2022-11-29T08:36:18.936Z,13.60
2022-11-29T08:38:47.122Z,13.30
2022-11-29T08:41:17.489Z,12.20
2022-11-29T08:43:45.093Z,15.00
2022-11-29T08:46:18.346Z,13.20
2022-11-29T08:48:47.345Z,12.40
2022-11-29T08:51:15.444Z,14.90
2022-11-29T08:57:04.507Z,12.40
2022-11-29T08:59:01.684Z,11.40
2022-11-29T09:01:29.562Z,12.30
2022-11-29T09:03:59.515Z,14.00
2022-11-29T09:06:40.716Z,12.30
2022-11-29T09:09:07.860Z,15.50
2022-11-29T09:11:36.934Z,15.10
2022-11-29T09:14:07.907Z,12.80
2022-11-29T09:16:38.319Z,11.20
2022-11-29T09:19:06.087Z,12.30
2022-11-29T09:21:36.807Z,12.20
2022-11-29T09:24:06.623Z,13.60
2022-11-29T09:26:37.929Z,10.40
2022-11-29T09:29:07.386Z,12.90
2022-11-29T09:31:35.367Z,13.80
2022-11-29T09:36:31.278Z,12.00
2022-11-29T09:39:02.627Z,13.00
2022-11-29T09:41:51.093Z,12.20
2022-11-29T09:44:36.156Z,11.70
2022-11-29T09:47:33.308Z,11.80
2022-11-29T09:50:36.452Z,11.50
2022-11-29T09:53:34.372Z,13.30
2022-11-29T09:56:15.050Z,12.70
2022-11-29T09:58:46.555Z,12.30
2022-11-29T10:01:24.970Z,12.60
2022-11-29T10:04:09.154Z,13.50
2022-11-29T10:06:50.279Z,12.30
2022-11-29T10:09:34.109Z,13.00
2022-11-29T10:12:14.637Z,12.80
2022-11-29T10:15:00.445Z,11.40
2022-11-29T10:17:47.639Z,11.30
2022-11-29T10:20:26.405Z,13.10
2022-11-29T10:23:33.855Z,12.10
2022-11-29T10:28:34.890Z,14.10
2022-11-29T10:31:31.882Z,13.50
2022-11-29T10:34:05.064Z,10.00
2022-11-29T10:36:41.258Z,11.20
2022-11-29T10:39:25.769Z,11.40
2022-11-29T10:41:59.775Z,12.60
2022-11-29T10:44:27.648Z,12.50
2022-11-29T10:46:55.906Z,14.50
2022-11-29T10:49:33.242Z,13.20
2022-11-29T10:52:00.050Z,13.70
2022-11-29T10:54:44.415Z,10.50
2022-11-29T10:57:20.784Z,11.20
2022-11-29T11:00:11.613Z,12.20
2022-11-29T11:02:38.870Z,11.10
2022-11-29T11:05:19.537Z,11.00
2022-11-29T11:07:57.513Z,12.70
2022-11-29T11:10:29.702Z,12.90
2022-11-29T11:13:21.110Z,9.70
2022-11-29T11:15:48.229Z,14.10
2022-11-29T11:18:26.741Z,11.20
2022-11-29T11:20:58.971Z,11.20
2022-11-29T11:23:29.929Z,11.00
2022-11-29T11:26:02.358Z,10.70
2022-11-29T11:28:42.581Z,12.00
2022-11-29T11:31:12.631Z,11.00
2022-11-29T11:33:43.368Z,12.80
2022-11-29T11:36:19.429Z,11.30
2022-11-29T11:39:09.873Z,12.00
2022-11-29T11:42:01.014Z,10.10
2022-11-29T11:44:50.470Z,10.30
2022-11-29T11:47:27.537Z,11.60
2022-11-29T11:50:00.540Z,12.40
2022-11-29T11:52:38.411Z,12.90
2022-11-29T11:55:25.353Z,12.80
2022-11-29T11:58:16.160Z,12.50
2022-11-29T12:01:04.444Z,12.80
2022-11-29T12:03:40.574Z,11.30
2022-11-29T12:06:38.374Z,10.80
2022-11-29T12:12:23.834Z,10.70
2022-11-29T12:15:08.534Z,11.50
2022-11-29T12:17:40.040Z,12.10
2022-11-29T12:20:34.022Z,12.90
2022-11-29T12:23:24.283Z,11.00
2022-11-29T12:26:04.566Z,13.00
2022-11-29T12:28:42.986Z,10.10
2022-11-29T12:31:30.821Z,10.20
2022-11-29T12:37:36.896Z,11.60
2022-11-29T12:40:28.138Z,10.40
2022-11-29T12:43:14.389Z,9.80
2022-11-29T12:45:49.135Z,10.60
2022-11-29T12:48:56.355Z,12.30
2022-11-29T12:51:31.137Z,13.20
2022-11-29T12:55:01.386Z,10.90
2022-11-29T12:58:10.630Z,11.40
2022-11-29T13:01:29.455Z,10.60
2022-11-29T13:04:14.447Z,11.80
2022-11-29T13:07:02.415Z,12.60
2022-11-29T13:09:54.006Z,13.90
2022-11-29T13:12:39.334Z,13.30
2022-11-29T13:15:19.010Z,14.10
2022-11-29T13:17:55.446Z,12.10
2022-11-29T13:21:06.730Z,12.40
2022-11-29T13:26:36.416Z,11.90
2022-11-29T13:29:06.196Z,11.50
2022-11-29T13:31:34.046Z,11.10
2022-11-29T13:34:28.981Z,12.00
2022-11-29T13:37:23.519Z,12.20
2022-11-29T13:39:56.227Z,12.00
2022-11-29T13:42:59.458Z,12.30
2022-11-29T13:45:46.979Z,13.40
2022-11-29T13:48:29.229Z,11.20
2022-11-29T13:51:40.788Z,10.80
2022-11-29T13:54:30.061Z,12.70
2022-11-29T13:57:23.790Z,13.00
2022-11-29T13:59:51.267Z,14.00
2022-11-29T14:02:31.653Z,12.60
2022-11-29T14:04:58.980Z,15.00
2022-11-29T14:07:25.939Z,9.90
2022-11-29T14:10:29.007Z,11.10
2022-11-29T14:12:59.964Z,12.50
2022-11-29T14:15:33.948Z,13.30
2022-11-29T14:18:08.275Z,13.60
2022-11-29T14:20:44.135Z,12.20
2022-11-29T14:23:32.887Z,14.30
2022-11-29T14:26:00.038Z,14.70
2022-11-29T14:28:37.236Z,14.00
2022-11-29T14:31:09.498Z,12.70
2022-11-29T14:34:20.966Z,11.30
2022-11-29T14:37:02.973Z,12.80
2022-11-29T14:39:51.954Z,13.10
2022-11-29T14:42:23.324Z,10.60
2022-11-29T14:45:07.131Z,13.80
2022-11-29T14:47:48.585Z,13.20
2022-11-29T14:50:40.707Z,14.50
2022-11-29T14:53:34.480Z,14.20
2022-11-29T14:56:32.247Z,11.90
2022-11-29T14:59:51.357Z,12.40
2022-11-29T15:02:33.551Z,12.30
2022-11-29T15:05:24.567Z,12.10
2022-11-29T15:08:50.176Z,11.60
2022-11-29T15:11:49.589Z,11.40
2022-11-29T15:14:42.662Z,13.40
2022-11-29T15:17:42.174Z,13.00
2022-11-29T15:20:57.021Z,11.80
2022-11-29T15:23:23.973Z,13.20
2022-11-29T15:25:55.016Z,12.60
2022-11-29T15:28:26.397Z,11.70
2022-11-29T15:31:08.330Z,11.20
2022-11-29T15:33:41.770Z,11.60
2022-11-29T15:36:22.777Z,11.30
2022-11-29T15:38:53.879Z,11.40
2022-11-29T15:41:31.377Z,11.80
2022-11-29T15:44:02.218Z,13.20
2022-11-29T15:46:33.505Z,13.70
2022-11-29T15:49:38.765Z,12.00
2022-11-29T15:52:20.038Z,10.90
2022-11-29T15:54:56.804Z,12.10
2022-11-29T15:57:42.926Z,11.40
2022-11-29T16:00:24.267Z,11.40
2022-11-29T16:02:59.764Z,12.20
2022-11-29T16:05:37.402Z,11.90
2022-11-29T16:08:19.557Z,12.80
2022-11-29T16:10:52.985Z,13.10
2022-11-29T16:13:25.851Z,13.30
2022-11-29T16:16:16.343Z,12.70
2022-11-29T16:18:48.012Z,12.30
2022-11-29T16:21:31.389Z,13.40
2022-11-29T16:24:10.355Z,11.40
2022-11-29T16:26:43.392Z,12.30
2022-11-29T16:29:38.258Z,13.80
2022-11-29T16:32:29.145Z,11.50
2022-11-29T16:35:05.221Z,13.50
2022-11-29T16:37:42.643Z,13.10
2022-11-29T16:40:35.741Z,12.70
2022-11-29T16:43:42.322Z,13.50
2022-11-29T16:46:21.248Z,13.00
2022-11-29T16:48:50.668Z,12.40
2022-11-29T16:51:48.158Z,11.70
2022-11-29T16:54:25.728Z,12.50
2022-11-29T16:56:55.782Z,11.90
2022-11-29T16:59:28.099Z,11.70
2022-11-29T17:01:57.100Z,13.60
2022-11-29T17:04:25.603Z,12.90
2022-11-29T17:06:57.487Z,12.70
2022-11-29T17:09:29.827Z,13.30
2022-11-29T17:12:00.125Z,11.10
2022-11-29T17:14:32.081Z,12.00
2022-11-29T17:17:03.030Z,11.70
2022-11-29T17:19:30.858Z,10.70
2022-11-29T17:21:59.396Z,12.10
2022-11-29T17:24:26.416Z,10.40
2022-11-29T17:26:53.258Z,11.50
2022-11-29T17:29:20.193Z,13.10
2022-11-29T17:31:50.825Z,12.50
2022-11-29T17:34:18.598Z,12.50
2022-11-29T17:36:46.358Z,11.30
2022-11-29T17:39:15.819Z,11.90
2022-11-29T17:41:43.016Z,10.60
2022-11-29T17:44:10.189Z,11.40
2022-11-29T17:46:38.041Z,11.10
2022-11-29T17:49:10.138Z,10.60
2022-11-29T17:51:51.815Z,11.50
2022-11-29T17:54:22.599Z,12.90
2022-11-29T17:56:51.140Z,14.50
2022-11-29T17:59:19.051Z,13.70
2022-11-29T18:01:50.229Z,12.80
2022-11-29T18:04:17.261Z,12.50
2022-11-29T18:06:49.820Z,12.40
2022-11-29T18:09:19.358Z,10.60
2022-11-29T18:11:49.977Z,11.00
2022-11-29T18:14:22.716Z,11.40
2022-11-29T18:16:50.172Z,11.20
2022-11-29T18:19:20.798Z,10.90
2022-11-29T18:21:49.194Z,11.30
2022-11-29T18:24:16.072Z,12.70
2022-11-29T18:26:43.578Z,13.00
2022-11-29T18:29:10.795Z,12.10
2022-11-29T18:31:41.831Z,12.20
2022-11-29T18:34:11.836Z,12.10
2022-11-29T18:36:57.000Z,10.30
2022-11-29T18:39:25.061Z,11.70
2022-11-29T18:44:30.433Z,10.40
2022-11-29T18:46:57.833Z,12.70
2022-11-29T18:49:24.674Z,13.20
2022-11-29T18:51:51.571Z,11.50
2022-11-29T18:54:19.603Z,12.40
2022-11-29T18:59:17.287Z,11.60
2022-11-29T19:01:48.283Z,11.80
2022-11-29T19:04:21.218Z,12.20
2022-11-29T19:06:48.592Z,11.40
2022-11-29T19:09:22.134Z,10.60
2022-11-29T19:11:50.257Z,11.80
2022-11-29T19:16:48.180Z,10.40
2022-11-29T19:19:15.200Z,10.80
2022-11-29T19:21:42.712Z,11.60
2022-11-29T19:24:15.782Z,12.20
2022-11-29T19:26:46.153Z,12.40
2022-11-29T19:29:17.222Z,11.90
2022-11-29T19:31:44.055Z,12.40
2022-11-29T19:34:11.421Z,12.10
2022-11-29T19:36:43.859Z,11.10
2022-11-29T19:39:17.436Z,11.60
2022-11-29T19:41:47.302Z,11.80
2022-11-29T19:44:14.960Z,10.80
2022-11-29T19:46:46.973Z,11.70
2022-11-29T19:49:14.314Z,10.90
2022-11-29T19:51:42.039Z,12.20
2022-11-29T19:54:10.692Z,11.80
2022-11-29T19:56:39.017Z,12.60
2022-11-29T19:59:07.803Z,11.90
2022-11-29T20:01:40.671Z,12.30
2022-11-29T20:04:10.555Z,12.30
2022-11-29T20:06:38.195Z,12.60
2022-11-29T20:09:05.022Z,10.60
2022-11-29T20:11:32.340Z,10.20
2022-11-29T20:14:02.627Z,10.70
2022-11-29T20:16:31.607Z,11.40
2022-11-29T20:19:00.304Z,11.10
2022-11-29T20:21:33.745Z,12.20
2022-11-29T20:24:04.876Z,11.30
2022-11-29T20:26:36.675Z,12.70
2022-11-29T20:29:06.651Z,13.20
2022-11-29T20:31:36.853Z,11.90
2022-11-29T20:34:06.594Z,13.10
2022-11-29T20:37:28.318Z,12.00
2022-11-29T20:40:04.922Z,11.40
2022-11-29T20:42:52.923Z,12.20
2022-11-29T20:45:20.280Z,11.60
2022-11-29T20:48:00.744Z,11.60
2022-11-29T20:50:31.410Z,11.70
2022-11-29T20:53:26.168Z,13.50
2022-11-29T20:55:53.215Z,11.40
2022-11-29T20:58:20.161Z,13.30
2022-11-29T21:00:47.265Z,11.90
2022-11-29T21:03:16.075Z,13.70
2022-11-29T21:05:43.429Z,13.50
2022-11-29T21:08:10.396Z,11.60
2022-11-29T21:10:37.442Z,11.50
2022-11-29T21:13:05.217Z,11.80
2022-11-29T21:15:32.789Z,12.30
2022-11-29T21:18:00.398Z,11.70
2022-11-29T21:20:28.070Z,11.70
2022-11-29T21:23:14.278Z,13.30
2022-11-29T21:26:02.941Z,13.00
2022-11-29T21:28:39.326Z,12.60
2022-11-29T21:31:06.780Z,13.00
2022-11-29T21:33:34.211Z,14.30
2022-11-29T21:36:01.773Z,14.10
2022-11-29T21:38:29.377Z,13.50
2022-11-29T21:40:56.128Z,13.80
2022-11-29T21:43:43.645Z,15.60
2022-11-29T21:46:09.966Z,13.20
2022-11-29T21:48:38.031Z,13.50
2022-11-29T21:51:11.141Z,11.40
2022-11-29T21:53:39.864Z,12.90
2022-11-29T21:56:10.569Z,14.20
2022-11-29T21:58:39.293Z,14.40
2022-11-29T22:01:19.443Z,13.90
2022-11-29T22:03:47.210Z,14.20
2022-11-29T22:06:20.909Z,15.60
2022-11-29T22:08:48.890Z,15.90
2022-11-29T22:14:19.356Z,10.90
2022-11-29T22:16:54.334Z,13.20
2022-11-29T22:19:36.785Z,13.70
2022-11-29T22:22:06.943Z,13.20
2022-11-29T22:24:36.918Z,12.90
2022-11-29T22:27:04.185Z,13.90
2022-11-29T22:29:31.070Z,13.80
2022-11-29T22:31:59.482Z,15.90
2022-11-29T22:34:27.918Z,15.40
2022-11-29T22:36:55.519Z,14.80
2022-11-29T22:39:24.005Z,15.20
2022-11-29T22:41:54.738Z,14.80
2022-11-29T22:44:23.836Z,14.80
2022-11-29T22:46:51.248Z,14.10
2022-11-29T22:49:18.175Z,14.30
2022-11-29T22:51:44.945Z,12.90
2022-11-29T22:54:15.504Z,14.90
2022-11-29T22:56:44.794Z,15.50
2022-11-29T22:59:11.690Z,14.90
2022-11-29T23:01:41.654Z,14.90
2022-11-29T23:04:11.158Z,14.70
2022-11-29T23:06:44.388Z,14.40
2022-11-29T23:09:22.544Z,14.60
2022-11-29T23:11:54.256Z,15.40
2022-11-29T23:14:22.801Z,14.20
2022-11-29T23:16:49.681Z,14.90
2022-11-29T23:19:17.445Z,15.00
2022-11-29T23:21:45.945Z,14.10
2022-11-29T23:24:15.250Z,14.30
2022-11-29T23:26:46.191Z,14.70
2022-11-29T23:29:17.521Z,15.50
2022-11-29T23:31:45.151Z,16.20
2022-11-29T23:34:12.706Z,14.50
2022-11-29T23:36:39.515Z,14.90
2022-11-29T23:39:07.008Z,15.30
2022-11-29T23:41:36.308Z,16.30
2022-11-29T23:44:05.455Z,13.70
2022-11-29T23:46:33.157Z,14.80
2022-11-29T23:48:59.901Z,13.40
2022-11-29T23:51:27.045Z,13.40
2022-11-29T23:53:54.974Z,13.00
2022-11-29T23:56:22.427Z,13.20
2022-11-29T23:58:49.722Z,14.20
